Terminal Aerodrome Forecast
Issued by NWS Charleston, WV

Current Version | Previous Version | Text Only | Print | Product List | Glossary Off
Versions: 1 2 3 4 5 6 7 8 9 10 11 12 13 14 15 16 17 18 19 20 21 22

000
FTUS41 KRLX 232300 RRA
TAFEKN
TAF
KEKN 232347Z 2400/2424 33004KT P6SM BKN050
     FM240300 35002KT 5SM -RASN BR OVC030
     FM240600 00000KT 3SM -SN BR OVC010
     FM240800 00000KT 6SM -SN OVC015
     FM241400 00000KT P6SM OVC020
     FM241700 29004KT P6SM BKN025
     FM242100 30005KT P6SM BKN035
     FM242300 00000KT P6SM BKN200=

USA.gov is the U.S. government's official web portal to all federal, state and local government web resources and services.